Terminal Aerodrome Forecast
Issued by NWS Wilmington, NC

Home | Current Version | Previous Version | Text Only | Print | Product List | Glossary On
Versions: 1 2 3 4 5 6 7 8 9 10 11 12
000
FTUS42 KILM 250500
TAFMYR
TAF
KMYR 250522Z 2506/2606 VRB03KT P6SM SKC
      TEMPO 2508/2512 5SM BR
     FM251700 22008KT P6SM SKC
      AMD LTD TO CLD VIS AND WIND TIL 251100=

USA.gov is the U.S. government's official web portal to all federal, state and local government web resources and services.